createdAt,value
2018-10-02T00:01:49.542Z,14.43
2018-10-02T00:04:18.258Z,6.67
2018-10-02T00:06:46.893Z,11.27
2018-10-02T00:09:15.635Z,11.60
2018-10-02T00:11:49.454Z,7.00
2018-10-02T00:14:25.152Z,5.23
2018-10-02T00:16:53.827Z,9.43
2018-10-02T00:19:22.526Z,10.17
2018-10-02T00:21:51.310Z,11.03
2018-10-02T00:24:20.007Z,15.33
2018-10-02T00:26:48.766Z,7.00
2018-10-02T00:29:17.440Z,7.80
2018-10-02T00:31:46.950Z,10.67
2018-10-02T00:34:15.632Z,10.50
2018-10-02T00:36:44.292Z,6.70
2018-10-02T00:39:13.006Z,9.57
2018-10-02T00:41:41.702Z,14.93
2018-10-02T00:44:10.329Z,6.63
2018-10-02T00:46:39.035Z,7.30
2018-10-02T00:49:07.762Z,7.57
2018-10-02T00:51:36.455Z,4.50
2018-10-02T00:54:05.118Z,5.30
2018-10-02T00:56:33.815Z,9.17
2018-10-02T00:59:02.496Z,5.57
2018-10-02T01:01:31.152Z,13.30
2018-10-02T01:03:59.813Z,6.63
2018-10-02T01:06:28.560Z,12.63
2018-10-02T01:08:57.192Z,4.57
2018-10-02T01:11:25.799Z,5.87
2018-10-02T01:13:54.513Z,10.50
2018-10-02T01:16:23.234Z,6.20
2018-10-02T01:18:51.849Z,5.20
2018-10-02T01:21:20.500Z,11.83
2018-10-02T01:23:49.220Z,13.07
2018-10-02T01:26:17.861Z,9.80
2018-10-02T01:28:46.509Z,14.10
2018-10-02T01:31:15.183Z,9.27
2018-10-02T01:33:43.819Z,8.83
2018-10-02T01:36:12.498Z,8.33
2018-10-02T01:38:41.190Z,11.03
2018-10-02T01:41:09.860Z,8.40
2018-10-02T01:43:38.567Z,12.10
2018-10-02T01:46:07.753Z,7.30
2018-10-02T01:48:36.501Z,11.60
2018-10-02T01:51:05.218Z,16.03
2018-10-02T01:53:33.999Z,11.03
2018-10-02T01:56:02.652Z,14.03
2018-10-02T01:58:31.313Z,8.60
2018-10-02T02:00:59.963Z,9.73
2018-10-02T02:03:28.900Z,9.27
2018-10-02T02:05:57.528Z,14.43
2018-10-02T02:08:26.177Z,11.00
2018-10-02T02:10:54.878Z,12.07
2018-10-02T02:13:23.629Z,10.43
2018-10-02T02:15:52.341Z,8.97
2018-10-02T02:18:21.043Z,10.23
2018-10-02T02:20:49.710Z,8.33
2018-10-02T02:23:18.365Z,14.40
2018-10-02T02:25:47.041Z,11.43
2018-10-02T02:28:15.700Z,10.20
2018-10-02T02:30:44.341Z,11.73
2018-10-02T02:33:13.026Z,8.80
2018-10-02T02:35:41.687Z,8.53
2018-10-02T02:38:10.415Z,11.87
2018-10-02T02:40:39.120Z,10.63
2018-10-02T02:43:07.815Z,13.30
2018-10-02T02:45:36.517Z,9.60
2018-10-02T02:48:10.348Z,9.60
2018-10-02T02:51:46.513Z,7.23
2018-10-02T02:54:15.188Z,10.00
2018-10-02T02:56:43.832Z,12.77
2018-10-02T02:59:12.474Z,10.87
2018-10-02T03:01:41.234Z,11.97
2018-10-02T03:04:09.913Z,8.90
2018-10-02T03:06:38.605Z,11.80
2018-10-02T03:09:08.111Z,10.13
2018-10-02T03:11:36.859Z,12.37
2018-10-02T03:14:05.518Z,12.03
2018-10-02T03:16:34.165Z,10.60
2018-10-02T03:19:02.836Z,10.50
2018-10-02T03:21:31.527Z,9.37
2018-10-02T03:24:00.155Z,8.00
2018-10-02T03:26:28.806Z,7.53
2018-10-02T03:28:57.476Z,7.67
2018-10-02T03:31:26.152Z,13.80
2018-10-02T03:33:54.843Z,6.73
2018-10-02T03:36:23.505Z,10.97
2018-10-02T03:38:52.203Z,6.40
2018-10-02T03:41:20.872Z,8.03
2018-10-02T03:43:49.560Z,10.63
2018-10-02T03:46:18.444Z,5.27
2018-10-02T03:48:47.094Z,11.20
2018-10-02T03:51:15.765Z,8.40
2018-10-02T03:53:44.601Z,7.50
2018-10-02T03:56:13.279Z,9.20
2018-10-02T03:58:42.011Z,7.87
2018-10-02T04:01:10.713Z,7.00
2018-10-02T04:03:39.407Z,12.43
2018-10-02T04:06:08.053Z,11.23
2018-10-02T04:08:36.710Z,11.93
2018-10-02T04:11:05.388Z,7.07
2018-10-02T04:13:33.979Z,7.20
2018-10-02T04:16:02.683Z,7.40
2018-10-02T04:18:31.340Z,8.57
2018-10-02T04:20:59.977Z,8.13
2018-10-02T04:23:28.673Z,6.60
2018-10-02T04:25:57.299Z,11.60
2018-10-02T04:28:25.992Z,6.63
2018-10-02T04:30:54.599Z,7.00
2018-10-02T04:33:23.296Z,12.77
2018-10-02T04:35:52.041Z,9.03
2018-10-02T04:38:20.641Z,10.63
2018-10-02T04:40:49.348Z,10.97
2018-10-02T04:43:18.025Z,6.10
2018-10-02T04:45:46.869Z,8.20
2018-10-02T04:48:15.511Z,8.97
2018-10-02T04:50:44.176Z,19.57
2018-10-02T04:53:12.892Z,12.20
2018-10-02T04:55:41.564Z,11.70
2018-10-02T04:58:10.273Z,10.40
2018-10-02T05:00:38.940Z,10.23
2018-10-02T05:03:07.615Z,11.30
2018-10-02T05:05:36.299Z,11.60
2018-10-02T05:08:05.100Z,12.33
2018-10-02T05:10:33.722Z,9.63
2018-10-02T05:13:02.458Z,15.33
2018-10-02T05:15:31.122Z,13.80
2018-10-02T05:17:59.780Z,15.73
2018-10-02T05:20:28.497Z,11.17
2018-10-02T05:22:57.151Z,11.40
2018-10-02T05:25:25.818Z,14.60
2018-10-02T05:27:54.480Z,14.47
2018-10-02T05:30:23.262Z,11.03
2018-10-02T05:32:52.413Z,14.60
2018-10-02T05:35:21.212Z,17.27
2018-10-02T05:37:49.776Z,17.47
2018-10-02T05:40:18.501Z,13.20
2018-10-02T05:42:47.233Z,13.13
2018-10-02T05:45:15.883Z,13.60
2018-10-02T05:47:44.599Z,14.43
2018-10-02T05:50:13.264Z,20.53
2018-10-02T05:52:41.957Z,13.30
2018-10-02T05:55:10.653Z,15.63
2018-10-02T05:57:39.538Z,18.03
2018-10-02T06:00:08.707Z,12.30
2018-10-02T06:02:37.432Z,17.90
2018-10-02T06:05:06.355Z,16.63
2018-10-02T06:07:35.019Z,14.57
2018-10-02T06:10:03.887Z,11.97
2018-10-02T06:12:32.574Z,12.60
2018-10-02T06:15:01.235Z,15.63
2018-10-02T06:17:29.832Z,12.97
2018-10-02T06:19:58.500Z,17.93
2018-10-02T06:22:27.119Z,14.77
2018-10-02T06:24:55.836Z,22.03
2018-10-02T06:27:24.541Z,19.57
2018-10-02T06:29:53.269Z,17.63
2018-10-02T06:32:21.887Z,19.53
2018-10-02T06:34:50.566Z,16.07
2018-10-02T06:37:19.274Z,15.10
2018-10-02T06:39:47.961Z,14.47
2018-10-02T06:42:16.675Z,21.00
2018-10-02T06:44:45.490Z,16.73
2018-10-02T06:47:14.037Z,16.30
2018-10-02T06:49:42.658Z,15.73
2018-10-02T06:52:11.486Z,24.13
2018-10-02T06:54:39.937Z,13.97
2018-10-02T06:57:09.811Z,19.60
2018-10-02T06:59:38.404Z,14.67
2018-10-02T07:02:07.177Z,18.03
2018-10-02T07:04:35.873Z,13.53
2018-10-02T07:07:04.595Z,14.63
2018-10-02T07:09:33.241Z,10.40
2018-10-02T07:12:01.885Z,12.97
2018-10-02T07:14:30.624Z,16.37
2018-10-02T07:16:59.297Z,11.47
2018-10-02T07:19:27.968Z,11.57
2018-10-02T07:21:56.601Z,13.30
2018-10-02T07:24:25.290Z,9.87
2018-10-02T07:26:54.205Z,12.43
2018-10-02T07:29:22.742Z,11.60
2018-10-02T07:31:51.420Z,12.20
2018-10-02T07:34:20.133Z,15.10
2018-10-02T07:36:48.868Z,10.53
2018-10-02T07:39:17.543Z,12.97
2018-10-02T07:41:46.257Z,12.87
2018-10-02T07:44:14.952Z,15.77
2018-10-02T07:46:43.605Z,13.03
2018-10-02T07:49:12.314Z,14.03
2018-10-02T07:51:40.933Z,16.03
2018-10-02T07:54:09.665Z,19.23
2018-10-02T07:56:38.343Z,14.63
2018-10-02T07:59:07.056Z,16.00
2018-10-02T08:01:35.703Z,32.40
2018-10-02T08:04:04.417Z,14.57
2018-10-02T08:06:32.994Z,14.03
2018-10-02T08:09:01.717Z,15.03
2018-10-02T08:11:30.361Z,11.80
2018-10-02T08:13:58.987Z,12.70
2018-10-02T08:16:27.621Z,10.50
2018-10-02T08:18:56.224Z,10.93
2018-10-02T08:21:24.869Z,14.07
2018-10-02T08:23:53.580Z,12.50
2018-10-02T08:26:22.256Z,15.13
2018-10-02T08:28:50.874Z,14.10
2018-10-02T08:31:19.558Z,11.53
2018-10-02T08:33:48.178Z,11.53
2018-10-02T08:36:16.890Z,13.17
2018-10-02T08:38:45.648Z,10.37
2018-10-02T08:41:14.233Z,11.23
2018-10-02T08:43:43.062Z,9.83
2018-10-02T08:46:11.694Z,12.43
2018-10-02T08:48:40.307Z,12.70
2018-10-02T08:51:08.966Z,7.27
2018-10-02T08:53:37.659Z,9.60
2018-10-02T08:56:06.340Z,11.67
2018-10-02T08:58:35.018Z,12.30
2018-10-02T09:01:03.700Z,8.97
2018-10-02T09:03:32.364Z,11.27
2018-10-02T09:06:01.040Z,11.97
2018-10-02T09:08:29.688Z,21.70
2018-10-02T09:10:58.293Z,9.53
2018-10-02T09:13:26.956Z,14.30
2018-10-02T09:15:55.865Z,8.13
2018-10-02T09:18:24.353Z,12.13
2018-10-02T09:20:53.360Z,14.63
2018-10-02T09:23:22.000Z,11.10
2018-10-02T09:25:50.669Z,9.37
2018-10-02T09:28:19.348Z,11.77
2018-10-02T09:30:53.350Z,11.60
2018-10-02T09:33:27.213Z,7.70
2018-10-02T09:36:01.183Z,10.13
2018-10-02T09:38:35.347Z,10.73
2018-10-02T09:41:09.392Z,10.90
2018-10-02T09:43:41.913Z,11.27
2018-10-02T09:46:10.572Z,9.70
2018-10-02T09:48:39.243Z,12.33
2018-10-02T09:51:07.875Z,9.20
2018-10-02T09:53:36.461Z,8.10
2018-10-02T09:56:05.140Z,7.77
2018-10-02T09:58:33.784Z,10.87
2018-10-02T10:01:10.799Z,14.00
2018-10-02T10:03:39.467Z,10.93
2018-10-02T10:06:08.157Z,11.83
2018-10-02T10:08:36.796Z,16.00
2018-10-02T10:11:05.460Z,13.67
2018-10-02T10:13:34.434Z,9.73
2018-10-02T10:16:03.284Z,14.30
2018-10-02T10:18:31.919Z,12.27
2018-10-02T10:21:00.543Z,11.33
2018-10-02T10:23:29.187Z,14.20
2018-10-02T10:25:57.849Z,12.37
2018-10-02T10:28:26.578Z,18.80
2018-10-02T10:30:55.214Z,13.83
2018-10-02T10:33:23.844Z,13.83
2018-10-02T10:35:52.475Z,17.17
2018-10-02T10:38:21.101Z,15.50
2018-10-02T10:40:49.820Z,15.23
2018-10-02T10:43:18.478Z,14.80
2018-10-02T10:45:47.151Z,17.57
2018-10-02T10:48:15.841Z,19.23
2018-10-02T10:50:45.405Z,17.17
2018-10-02T10:53:14.083Z,17.77
2018-10-02T10:55:42.758Z,15.90
2018-10-02T10:58:11.433Z,17.33
2018-10-02T11:00:40.099Z,18.20
2018-10-02T11:03:08.805Z,15.83
2018-10-02T11:05:37.377Z,17.43
2018-10-02T11:08:06.027Z,18.07
2018-10-02T11:10:34.713Z,16.67
2018-10-02T11:13:03.337Z,21.13
2018-10-02T11:15:33.094Z,17.80
2018-10-02T11:18:01.915Z,19.77
2018-10-02T11:20:33.229Z,20.70
2018-10-02T11:23:02.008Z,28.87
2018-10-02T11:25:30.678Z,23.83
2018-10-02T11:27:59.432Z,19.60
2018-10-02T11:30:28.111Z,19.03
2018-10-02T11:32:56.768Z,20.47
2018-10-02T11:35:25.516Z,23.90
2018-10-02T11:37:54.183Z,20.93
2018-10-02T11:40:22.817Z,20.47
2018-10-02T11:42:51.499Z,21.80
2018-10-02T11:45:20.181Z,26.50
2018-10-02T11:47:48.878Z,21.77
2018-10-02T11:50:17.499Z,23.40
2018-10-02T11:52:46.173Z,22.13
2018-10-02T11:55:14.866Z,22.03
2018-10-02T11:57:43.497Z,21.20
2018-10-02T12:00:12.167Z,22.73
2018-10-02T12:02:40.876Z,20.90
2018-10-02T12:05:09.530Z,23.27
2018-10-02T12:07:38.201Z,21.50
2018-10-02T12:10:06.971Z,23.53
2018-10-02T12:12:35.593Z,23.63
2018-10-02T12:15:04.330Z,26.63
2018-10-02T12:17:32.955Z,26.00
2018-10-02T12:20:01.695Z,26.73
2018-10-02T12:22:30.321Z,22.87
2018-10-02T12:24:58.967Z,21.67
2018-10-02T12:27:27.594Z,23.43
2018-10-02T12:29:56.280Z,21.13
2018-10-02T12:32:25.066Z,21.07
2018-10-02T12:34:53.699Z,22.40
2018-10-02T12:37:22.344Z,21.13
2018-10-02T12:39:51.036Z,19.03
2018-10-02T12:42:19.689Z,19.20
2018-10-02T12:44:48.371Z,19.10
2018-10-02T12:47:17.068Z,19.47
2018-10-02T12:49:45.735Z,19.30
2018-10-02T12:52:14.433Z,21.50
2018-10-02T12:54:43.153Z,22.40
2018-10-02T12:57:12.013Z,21.87
2018-10-02T12:59:40.708Z,23.33
2018-10-02T13:02:09.489Z,22.27
2018-10-02T13:04:38.115Z,18.80
2018-10-02T13:07:06.866Z,20.27
2018-10-02T13:09:35.505Z,21.33
2018-10-02T13:12:04.190Z,22.90
2018-10-02T13:14:32.829Z,20.40
2018-10-02T13:17:01.483Z,22.50
2018-10-02T13:19:30.179Z,21.70
2018-10-02T13:21:58.838Z,20.03
2018-10-02T13:24:27.555Z,19.77
2018-10-02T13:26:56.191Z,18.97
2018-10-02T13:29:24.833Z,19.87
2018-10-02T13:31:53.514Z,21.40
2018-10-02T13:34:22.229Z,22.50
2018-10-02T13:36:50.864Z,23.60
2018-10-02T13:39:19.597Z,17.80
2018-10-02T13:41:48.276Z,21.67
2018-10-02T13:44:16.904Z,19.63
2018-10-02T13:46:45.563Z,19.33
2018-10-02T13:49:14.205Z,18.87
2018-10-02T13:51:42.862Z,20.63
2018-10-02T13:54:11.490Z,21.53
2018-10-02T13:56:40.129Z,20.00
2018-10-02T13:59:08.762Z,23.27
2018-10-02T14:01:37.461Z,23.73
2018-10-02T14:04:06.100Z,20.93
2018-10-02T14:06:34.850Z,22.60
2018-10-02T14:09:03.765Z,27.23
2018-10-02T14:11:32.398Z,19.93
2018-10-02T14:14:00.984Z,21.83
2018-10-02T14:16:29.650Z,19.93
2018-10-02T14:18:58.390Z,22.03
2018-10-02T14:21:27.107Z,26.50
2018-10-02T14:23:55.836Z,24.97
2018-10-02T14:26:24.412Z,21.83
2018-10-02T14:28:53.012Z,16.67
2018-10-02T14:31:21.699Z,17.33
2018-10-02T14:33:50.349Z,16.23
2018-10-02T14:36:19.025Z,16.83
2018-10-02T14:38:47.672Z,21.33
2018-10-02T14:41:16.375Z,15.17
2018-10-02T14:43:45.005Z,17.03
2018-10-02T14:46:13.664Z,21.03
2018-10-02T14:48:42.359Z,21.93
2018-10-02T14:51:11.028Z,19.60
2018-10-02T14:53:39.699Z,21.93
2018-10-02T14:56:08.337Z,21.47
2018-10-02T14:58:37.005Z,17.13
2018-10-02T15:01:05.780Z,18.53
2018-10-02T15:03:34.427Z,13.20
2018-10-02T15:06:03.053Z,14.87
2018-10-02T15:08:31.704Z,9.23
2018-10-02T15:11:00.353Z,19.10
2018-10-02T15:13:29.017Z,14.03
2018-10-02T15:15:57.661Z,10.53
2018-10-02T15:18:26.294Z,11.40
2018-10-02T15:20:55.016Z,16.73
2018-10-02T15:23:23.682Z,12.80
2018-10-02T15:25:52.353Z,15.20
2018-10-02T15:28:21.012Z,19.33
2018-10-02T15:30:49.827Z,15.97
2018-10-02T15:33:18.506Z,23.23
2018-10-02T15:35:47.168Z,15.33
2018-10-02T15:38:15.842Z,16.03
2018-10-02T15:40:44.501Z,12.07
2018-10-02T15:43:13.190Z,13.77
2018-10-02T15:45:41.868Z,9.90
2018-10-02T15:48:10.614Z,7.30
2018-10-02T15:50:39.289Z,10.53
2018-10-02T15:53:07.919Z,7.83
2018-10-02T15:55:36.553Z,11.30
2018-10-02T15:58:05.235Z,7.60
2018-10-02T16:00:33.929Z,10.77
2018-10-02T16:03:02.578Z,8.47
2018-10-02T16:05:31.339Z,9.30
2018-10-02T16:08:00.081Z,13.87
2018-10-02T16:10:28.739Z,12.50
2018-10-02T16:12:57.393Z,13.93
2018-10-02T16:15:26.162Z,12.83
2018-10-02T16:17:54.927Z,13.83
2018-10-02T16:20:23.525Z,6.67
2018-10-02T16:22:52.158Z,9.47
2018-10-02T16:25:20.836Z,10.70
2018-10-02T16:27:49.799Z,10.37
2018-10-02T16:30:18.595Z,7.63
2018-10-02T16:32:47.250Z,11.93
2018-10-02T16:35:16.077Z,10.23
2018-10-02T16:37:44.961Z,14.20
2018-10-02T16:40:13.582Z,10.80
2018-10-02T16:42:42.282Z,12.13
2018-10-02T16:45:10.945Z,9.27
2018-10-02T16:47:39.660Z,14.90
2018-10-02T16:50:08.394Z,10.30
2018-10-02T16:52:37.037Z,9.23
2018-10-02T16:55:06.125Z,8.47
2018-10-02T16:57:34.880Z,13.53
2018-10-02T17:00:03.957Z,8.13
2018-10-02T17:02:32.605Z,8.80
2018-10-02T17:05:01.427Z,6.73
2018-10-02T17:07:30.269Z,9.20
2018-10-02T17:09:58.959Z,9.70
2018-10-02T17:12:27.614Z,11.30
2018-10-02T17:14:56.328Z,8.40
2018-10-02T17:17:25.002Z,12.80
2018-10-02T17:19:53.956Z,11.50
2018-10-02T17:22:22.644Z,12.47
2018-10-02T17:24:51.373Z,8.27
2018-10-02T17:27:20.008Z,14.90
2018-10-02T17:29:48.610Z,11.83
2018-10-02T17:32:17.329Z,13.00
2018-10-02T17:34:45.986Z,10.60
2018-10-02T17:37:14.617Z,12.73
2018-10-02T17:39:44.799Z,12.27
2018-10-02T17:42:13.695Z,9.70
2018-10-02T17:44:42.304Z,11.10
2018-10-02T17:47:11.155Z,13.80
2018-10-02T17:49:39.906Z,15.63
2018-10-02T17:52:08.736Z,8.83
2018-10-02T17:54:37.380Z,15.70
2018-10-02T17:57:06.035Z,22.17
2018-10-02T17:59:34.711Z,12.47
2018-10-02T18:02:03.352Z,12.83
2018-10-02T18:04:32.006Z,10.47
2018-10-02T18:07:00.696Z,9.10
2018-10-02T18:09:29.354Z,12.43
2018-10-02T18:11:58.074Z,12.60
2018-10-02T18:14:26.702Z,14.67
2018-10-02T18:16:55.307Z,12.47
2018-10-02T18:19:23.969Z,15.53
2018-10-02T18:21:52.683Z,14.23
2018-10-02T18:24:21.359Z,11.20
2018-10-02T18:26:50.017Z,17.27
2018-10-02T18:29:18.690Z,13.03
2018-10-02T18:31:47.365Z,13.20
2018-10-02T18:34:16.020Z,12.93
2018-10-02T18:36:44.779Z,14.47
2018-10-02T18:39:13.431Z,16.27
2018-10-02T18:41:42.069Z,13.80
2018-10-02T18:44:10.754Z,13.20
2018-10-02T18:46:39.357Z,15.33
2018-10-02T18:49:08.127Z,15.20
2018-10-02T18:51:36.886Z,16.93
2018-10-02T18:54:05.561Z,14.77
2018-10-02T18:56:34.289Z,16.73
2018-10-02T18:59:03.072Z,16.23
2018-10-02T19:01:31.814Z,14.43
2018-10-02T19:04:00.523Z,16.57
2018-10-02T19:06:29.165Z,18.00
2018-10-02T19:09:03.158Z,15.00
2018-10-02T19:11:37.033Z,15.47
2018-10-02T19:14:05.688Z,13.73
2018-10-02T19:16:35.410Z,12.60
2018-10-02T19:19:04.082Z,12.87
2018-10-02T19:21:32.705Z,10.37
2018-10-02T19:24:01.386Z,13.67
2018-10-02T19:26:30.323Z,13.00
2018-10-02T19:28:58.992Z,11.87
2018-10-02T19:31:33.125Z,14.77
2018-10-02T19:34:01.925Z,14.03
2018-10-02T19:36:30.618Z,21.17
2018-10-02T19:39:07.551Z,19.33
2018-10-02T19:41:36.258Z,10.40
2018-10-02T19:44:05.019Z,13.70
2018-10-02T19:47:10.359Z,12.33
2018-10-02T19:49:39.067Z,21.03
2018-10-02T19:52:18.405Z,15.33
2018-10-02T19:54:48.133Z,13.83
2018-10-02T19:57:18.122Z,11.60
2018-10-02T19:59:46.759Z,14.50
2018-10-02T20:02:15.377Z,11.53
2018-10-02T20:04:44.103Z,14.97
2018-10-02T20:07:12.836Z,13.97
2018-10-02T20:09:41.423Z,17.20
2018-10-02T20:12:10.070Z,8.87
2018-10-02T20:14:38.726Z,14.07
2018-10-02T20:17:07.458Z,13.33
2018-10-02T20:19:36.137Z,10.83
2018-10-02T20:22:04.891Z,14.57
2018-10-02T20:24:33.578Z,19.50
2018-10-02T20:27:02.247Z,13.70
2018-10-02T20:29:30.881Z,20.23
2018-10-02T20:31:59.558Z,15.50
2018-10-02T20:34:28.227Z,19.03
2018-10-02T20:36:56.903Z,8.40
2018-10-02T20:39:25.602Z,16.50
2018-10-02T20:41:54.195Z,19.13
2018-10-02T20:44:22.893Z,15.23
2018-10-02T20:46:51.549Z,15.70
2018-10-02T20:49:20.317Z,12.47
2018-10-02T20:51:48.881Z,22.43
2018-10-02T20:54:17.544Z,13.37
2018-10-02T20:56:46.202Z,16.73
2018-10-02T20:59:14.914Z,17.40
2018-10-02T21:01:43.567Z,18.73
2018-10-02T21:04:12.193Z,15.60
2018-10-02T21:06:40.880Z,20.73
2018-10-02T21:09:09.529Z,16.07
2018-10-02T21:11:38.162Z,14.50
2018-10-02T21:14:06.846Z,19.77
2018-10-02T21:16:35.519Z,11.50
2018-10-02T21:19:04.162Z,20.30
2018-10-02T21:21:32.800Z,15.57
2018-10-02T21:24:01.424Z,11.70
2018-10-02T21:26:30.088Z,12.63
2018-10-02T21:28:58.833Z,17.00
2018-10-02T21:31:27.501Z,14.97
2018-10-02T21:33:56.210Z,18.13
2018-10-02T21:36:24.818Z,25.23
2018-10-02T21:38:53.477Z,11.17
2018-10-02T21:41:22.150Z,12.33
2018-10-02T21:43:50.802Z,11.83
2018-10-02T21:46:19.459Z,18.63
2018-10-02T21:48:48.066Z,18.30
2018-10-02T21:51:16.734Z,16.83
2018-10-02T21:53:45.648Z,21.87
2018-10-02T21:56:14.356Z,17.57
2018-10-02T21:58:43.001Z,20.53
2018-10-02T22:01:11.658Z,19.60
2018-10-02T22:03:40.925Z,12.60
2018-10-02T22:06:09.612Z,20.20
2018-10-02T22:08:38.302Z,15.07
2018-10-02T22:11:06.957Z,16.00
2018-10-02T22:13:35.721Z,15.70
2018-10-02T22:16:04.414Z,18.47
2018-10-02T22:18:33.093Z,19.30
2018-10-02T22:21:01.737Z,18.90
2018-10-02T22:23:30.494Z,15.23
2018-10-02T22:25:59.122Z,24.40
2018-10-02T22:28:27.838Z,17.90
2018-10-02T22:30:56.513Z,13.50
2018-10-02T22:33:25.242Z,17.80
2018-10-02T22:35:53.933Z,17.10
2018-10-02T22:38:22.719Z,19.90
2018-10-02T22:40:51.436Z,16.83
2018-10-02T22:43:20.079Z,18.83
2018-10-02T22:45:48.773Z,22.40
2018-10-02T22:48:17.620Z,22.00
2018-10-02T22:50:46.255Z,18.60
2018-10-02T22:53:14.889Z,18.83
2018-10-02T22:55:43.540Z,20.73
2018-10-02T22:58:12.216Z,15.80
2018-10-02T23:00:40.897Z,17.50
2018-10-02T23:03:09.522Z,18.60
2018-10-02T23:05:38.147Z,16.30
2018-10-02T23:08:06.780Z,23.33
2018-10-02T23:10:35.456Z,22.73
2018-10-02T23:13:04.133Z,12.97
2018-10-02T23:15:32.777Z,20.13
2018-10-02T23:18:01.498Z,17.60
2018-10-02T23:20:30.165Z,28.70
2018-10-02T23:22:58.807Z,21.13
2018-10-02T23:25:27.502Z,25.53
2018-10-02T23:27:56.079Z,13.63
2018-10-02T23:30:24.744Z,20.47
2018-10-02T23:32:53.446Z,26.37
2018-10-02T23:35:22.113Z,26.60
2018-10-02T23:37:50.830Z,21.33
2018-10-02T23:40:19.486Z,17.70
2018-10-02T23:42:48.068Z,16.63
2018-10-02T23:45:16.761Z,18.30
2018-10-02T23:47:45.457Z,20.73
2018-10-02T23:50:14.056Z,21.90
2018-10-02T23:52:42.675Z,13.97
2018-10-02T23:55:11.326Z,14.70
2018-10-02T23:57:40.029Z,23.23
